sensor_id;sensor_type;location;lat;lon;timestamp;P1;durP1;ratioP1;P2;durP2;ratioP2
22648;SDS011;11491;41.942;24.220;2022-12-07T00:01:37;24.25;;;12.65;;
22648;SDS011;11491;41.942;24.220;2022-12-07T00:04:05;22.77;;;10.40;;
22648;SDS011;11491;41.942;24.220;2022-12-07T00:06:34;21.65;;;11.57;;
22648;SDS011;11491;41.942;24.220;2022-12-07T00:09:02;19.85;;;9.85;;
22648;SDS011;11491;41.942;24.220;2022-12-07T00:11:30;17.27;;;10.23;;
22648;SDS011;11491;41.942;24.220;2022-12-07T00:13:58;18.15;;;11.18;;
22648;SDS011;11491;41.942;24.220;2022-12-07T00:16:27;18.83;;;12.05;;
22648;SDS011;11491;41.942;24.220;2022-12-07T00:18:59;20.70;;;13.40;;
22648;SDS011;11491;41.942;24.220;2022-12-07T00:21:27;23.15;;;12.48;;
22648;SDS011;11491;41.942;24.220;2022-12-07T00:23:55;21.40;;;12.20;;
22648;SDS011;11491;41.942;24.220;2022-12-07T00:26:23;21.70;;;10.85;;
22648;SDS011;11491;41.942;24.220;2022-12-07T00:28:52;18.88;;;11.40;;
22648;SDS011;11491;41.942;24.220;2022-12-07T00:31:21;19.63;;;11.02;;
22648;SDS011;11491;41.942;24.220;2022-12-07T00:33:49;14.40;;;9.25;;
22648;SDS011;11491;41.942;24.220;2022-12-07T00:36:18;15.77;;;7.90;;
22648;SDS011;11491;41.942;24.220;2022-12-07T00:38:46;16.75;;;8.32;;
22648;SDS011;11491;41.942;24.220;2022-12-07T00:41:14;20.92;;;12.00;;
22648;SDS011;11491;41.942;24.220;2022-12-07T00:43:42;23.13;;;10.63;;
22648;SDS011;11491;41.942;24.220;2022-12-07T00:46:10;14.90;;;9.70;;
22648;SDS011;11491;41.942;24.220;2022-12-07T00:48:37;18.42;;;9.02;;
22648;SDS011;11491;41.942;24.220;2022-12-07T00:51:04;13.52;;;7.90;;
22648;SDS011;11491;41.942;24.220;2022-12-07T00:53:34;17.27;;;9.35;;
22648;SDS011;11491;41.942;24.220;2022-12-07T00:56:04;16.55;;;9.70;;
22648;SDS011;11491;41.942;24.220;2022-12-07T00:58:31;16.48;;;9.55;;
22648;SDS011;11491;41.942;24.220;2022-12-07T01:00:59;19.27;;;9.15;;
22648;SDS011;11491;41.942;24.220;2022-12-07T01:03:27;14.20;;;7.97;;
22648;SDS011;11491;41.942;24.220;2022-12-07T01:05:55;11.32;;;7.65;;
22648;SDS011;11491;41.942;24.220;2022-12-07T01:08:22;13.77;;;7.63;;
22648;SDS011;11491;41.942;24.220;2022-12-07T01:10:58;14.00;;;7.35;;
22648;SDS011;11491;41.942;24.220;2022-12-07T01:13:25;19.15;;;8.35;;
22648;SDS011;11491;41.942;24.220;2022-12-07T01:15:55;15.65;;;8.70;;
22648;SDS011;11491;41.942;24.220;2022-12-07T01:18:24;15.48;;;8.73;;
22648;SDS011;11491;41.942;24.220;2022-12-07T01:20:58;19.40;;;10.02;;
22648;SDS011;11491;41.942;24.220;2022-12-07T01:23:26;24.60;;;13.45;;
22648;SDS011;11491;41.942;24.220;2022-12-07T01:25:57;18.70;;;11.88;;
22648;SDS011;11491;41.942;24.220;2022-12-07T01:28:25;17.85;;;11.48;;
22648;SDS011;11491;41.942;24.220;2022-12-07T01:30:56;20.23;;;13.27;;
22648;SDS011;11491;41.942;24.220;2022-12-07T01:33:24;17.45;;;11.20;;
22648;SDS011;11491;41.942;24.220;2022-12-07T01:35:53;13.85;;;6.95;;
22648;SDS011;11491;41.942;24.220;2022-12-07T01:38:20;14.70;;;9.27;;
22648;SDS011;11491;41.942;24.220;2022-12-07T01:40:53;17.63;;;10.85;;
22648;SDS011;11491;41.942;24.220;2022-12-07T01:43:21;28.63;;;14.23;;
22648;SDS011;11491;41.942;24.220;2022-12-07T01:45:50;23.35;;;11.93;;
22648;SDS011;11491;41.942;24.220;2022-12-07T01:48:17;32.17;;;13.95;;
22648;SDS011;11491;41.942;24.220;2022-12-07T01:50:47;28.75;;;16.48;;
22648;SDS011;11491;41.942;24.220;2022-12-07T01:53:16;23.83;;;13.15;;
22648;SDS011;11491;41.942;24.220;2022-12-07T01:55:44;20.90;;;12.90;;
22648;SDS011;11491;41.942;24.220;2022-12-07T01:58:15;25.05;;;12.13;;
22648;SDS011;11491;41.942;24.220;2022-12-07T02:00:44;23.40;;;12.77;;
22648;SDS011;11491;41.942;24.220;2022-12-07T02:03:12;17.88;;;10.98;;
22648;SDS011;11491;41.942;24.220;2022-12-07T02:05:44;19.38;;;10.20;;
22648;SDS011;11491;41.942;24.220;2022-12-07T02:08:13;19.63;;;8.65;;
22648;SDS011;11491;41.942;24.220;2022-12-07T02:10:40;14.10;;;8.82;;
22648;SDS011;11491;41.942;24.220;2022-12-07T02:13:10;18.23;;;9.50;;
22648;SDS011;11491;41.942;24.220;2022-12-07T02:15:42;12.75;;;8.48;;
22648;SDS011;11491;41.942;24.220;2022-12-07T02:18:19;16.40;;;8.13;;
22648;SDS011;11491;41.942;24.220;2022-12-07T02:23:30;26.95;;;15.20;;
22648;SDS011;11491;41.942;24.220;2022-12-07T02:29:33;28.63;;;14.27;;
22648;SDS011;11491;41.942;24.220;2022-12-07T02:32:04;22.17;;;11.50;;
22648;SDS011;11491;41.942;24.220;2022-12-07T02:34:39;28.42;;;14.55;;
22648;SDS011;11491;41.942;24.220;2022-12-07T02:37:19;33.75;;;16.80;;
22648;SDS011;11491;41.942;24.220;2022-12-07T02:39:54;115.82;;;64.50;;
22648;SDS011;11491;41.942;24.220;2022-12-07T02:42:26;35.97;;;21.80;;
22648;SDS011;11491;41.942;24.220;2022-12-07T02:44:59;22.67;;;14.70;;
22648;SDS011;11491;41.942;24.220;2022-12-07T02:47:27;25.35;;;14.70;;
22648;SDS011;11491;41.942;24.220;2022-12-07T02:49:56;34.85;;;16.95;;
22648;SDS011;11491;41.942;24.220;2022-12-07T02:52:22;24.83;;;13.65;;
22648;SDS011;11491;41.942;24.220;2022-12-07T02:54:49;24.67;;;12.20;;
22648;SDS011;11491;41.942;24.220;2022-12-07T02:57:24;19.98;;;9.30;;
22648;SDS011;11491;41.942;24.220;2022-12-07T03:00:05;17.90;;;8.45;;
22648;SDS011;11491;41.942;24.220;2022-12-07T03:02:37;11.93;;;6.93;;
22648;SDS011;11491;41.942;24.220;2022-12-07T03:05:15;13.48;;;7.35;;
22648;SDS011;11491;41.942;24.220;2022-12-07T03:07:55;15.15;;;7.15;;
22648;SDS011;11491;41.942;24.220;2022-12-07T03:10:31;16.50;;;8.65;;
22648;SDS011;11491;41.942;24.220;2022-12-07T03:13:07;11.95;;;7.20;;
22648;SDS011;11491;41.942;24.220;2022-12-07T03:15:41;16.02;;;8.35;;
22648;SDS011;11491;41.942;24.220;2022-12-07T03:18:12;23.08;;;10.50;;
22648;SDS011;11491;41.942;24.220;2022-12-07T03:20:42;20.00;;;11.80;;
22648;SDS011;11491;41.942;24.220;2022-12-07T03:23:13;23.52;;;12.63;;
22648;SDS011;11491;41.942;24.220;2022-12-07T03:25:43;20.15;;;10.43;;
22648;SDS011;11491;41.942;24.220;2022-12-07T03:28:13;25.00;;;10.75;;
22648;SDS011;11491;41.942;24.220;2022-12-07T03:30:46;15.80;;;9.20;;
22648;SDS011;11491;41.942;24.220;2022-12-07T03:33:18;13.43;;;8.45;;
22648;SDS011;11491;41.942;24.220;2022-12-07T03:35:49;16.45;;;8.88;;
22648;SDS011;11491;41.942;24.220;2022-12-07T03:38:22;15.32;;;9.27;;
22648;SDS011;11491;41.942;24.220;2022-12-07T03:40:53;18.65;;;8.73;;
22648;SDS011;11491;41.942;24.220;2022-12-07T03:43:25;19.17;;;11.00;;
22648;SDS011;11491;41.942;24.220;2022-12-07T03:45:58;20.73;;;11.60;;
22648;SDS011;11491;41.942;24.220;2022-12-07T03:48:34;22.08;;;12.38;;
22648;SDS011;11491;41.942;24.220;2022-12-07T03:51:08;24.70;;;13.98;;
22648;SDS011;11491;41.942;24.220;2022-12-07T03:53:45;29.85;;;17.65;;
22648;SDS011;11491;41.942;24.220;2022-12-07T03:56:17;27.10;;;18.70;;
22648;SDS011;11491;41.942;24.220;2022-12-07T03:58:46;27.90;;;15.45;;
22648;SDS011;11491;41.942;24.220;2022-12-07T04:01:14;30.92;;;15.60;;
22648;SDS011;11491;41.942;24.220;2022-12-07T04:03:41;20.63;;;13.50;;
22648;SDS011;11491;41.942;24.220;2022-12-07T04:06:08;25.25;;;13.45;;
22648;SDS011;11491;41.942;24.220;2022-12-07T04:08:34;17.77;;;11.10;;
22648;SDS011;11491;41.942;24.220;2022-12-07T04:11:02;16.45;;;10.75;;
22648;SDS011;11491;41.942;24.220;2022-12-07T04:13:29;21.02;;;14.15;;
22648;SDS011;11491;41.942;24.220;2022-12-07T04:16:17;21.27;;;14.20;;
22648;SDS011;11491;41.942;24.220;2022-12-07T04:18:43;20.88;;;13.75;;
22648;SDS011;11491;41.942;24.220;2022-12-07T04:21:10;23.73;;;14.55;;
22648;SDS011;11491;41.942;24.220;2022-12-07T04:23:37;20.65;;;12.10;;
22648;SDS011;11491;41.942;24.220;2022-12-07T04:26:04;16.65;;;11.35;;
22648;SDS011;11491;41.942;24.220;2022-12-07T04:28:31;18.08;;;11.95;;
22648;SDS011;11491;41.942;24.220;2022-12-07T04:30:57;16.20;;;10.05;;
22648;SDS011;11491;41.942;24.220;2022-12-07T04:33:25;19.02;;;12.27;;
22648;SDS011;11491;41.942;24.220;2022-12-07T04:35:52;46.25;;;26.02;;
22648;SDS011;11491;41.942;24.220;2022-12-07T04:38:19;41.05;;;26.33;;
22648;SDS011;11491;41.942;24.220;2022-12-07T04:40:45;31.00;;;19.02;;
22648;SDS011;11491;41.942;24.220;2022-12-07T04:43:12;35.75;;;22.80;;
22648;SDS011;11491;41.942;24.220;2022-12-07T04:45:39;31.67;;;20.85;;
22648;SDS011;11491;41.942;24.220;2022-12-07T04:48:06;36.40;;;20.73;;
22648;SDS011;11491;41.942;24.220;2022-12-07T04:50:34;37.10;;;21.23;;
22648;SDS011;11491;41.942;24.220;2022-12-07T04:53:03;38.45;;;19.33;;
22648;SDS011;11491;41.942;24.220;2022-12-07T04:55:30;26.63;;;15.50;;
22648;SDS011;11491;41.942;24.220;2022-12-07T04:57:56;24.40;;;14.88;;
22648;SDS011;11491;41.942;24.220;2022-12-07T05:00:23;40.45;;;24.05;;
22648;SDS011;11491;41.942;24.220;2022-12-07T05:02:50;44.75;;;25.60;;
22648;SDS011;11491;41.942;24.220;2022-12-07T05:05:16;48.35;;;28.90;;
22648;SDS011;11491;41.942;24.220;2022-12-07T05:07:44;40.30;;;23.75;;
22648;SDS011;11491;41.942;24.220;2022-12-07T05:10:11;37.30;;;21.70;;
22648;SDS011;11491;41.942;24.220;2022-12-07T05:12:38;40.28;;;25.13;;
22648;SDS011;11491;41.942;24.220;2022-12-07T05:15:05;47.63;;;24.73;;
22648;SDS011;11491;41.942;24.220;2022-12-07T05:17:32;44.85;;;29.60;;
22648;SDS011;11491;41.942;24.220;2022-12-07T05:19:59;51.53;;;32.33;;
22648;SDS011;11491;41.942;24.220;2022-12-07T05:22:25;68.78;;;37.50;;
22648;SDS011;11491;41.942;24.220;2022-12-07T05:24:54;74.50;;;40.38;;
22648;SDS011;11491;41.942;24.220;2022-12-07T05:27:21;64.75;;;40.22;;
22648;SDS011;11491;41.942;24.220;2022-12-07T05:29:49;71.07;;;43.53;;
22648;SDS011;11491;41.942;24.220;2022-12-07T05:32:16;76.78;;;47.08;;
22648;SDS011;11491;41.942;24.220;2022-12-07T05:34:43;67.60;;;39.35;;
22648;SDS011;11491;41.942;24.220;2022-12-07T05:37:10;72.32;;;44.67;;
22648;SDS011;11491;41.942;24.220;2022-12-07T05:39:37;77.85;;;48.10;;
22648;SDS011;11491;41.942;24.220;2022-12-07T05:42:07;77.43;;;47.60;;
22648;SDS011;11491;41.942;24.220;2022-12-07T05:44:38;79.20;;;48.10;;
22648;SDS011;11491;41.942;24.220;2022-12-07T05:47:05;81.75;;;51.55;;
22648;SDS011;11491;41.942;24.220;2022-12-07T05:49:32;99.63;;;62.53;;
22648;SDS011;11491;41.942;24.220;2022-12-07T05:51:59;107.53;;;63.70;;
22648;SDS011;11491;41.942;24.220;2022-12-07T05:54:26;84.47;;;55.50;;
22648;SDS011;11491;41.942;24.220;2022-12-07T05:56:53;110.72;;;66.75;;
22648;SDS011;11491;41.942;24.220;2022-12-07T05:59:21;97.05;;;60.80;;
22648;SDS011;11491;41.942;24.220;2022-12-07T06:01:50;110.47;;;69.15;;
22648;SDS011;11491;41.942;24.220;2022-12-07T06:04:17;115.78;;;70.38;;
22648;SDS011;11491;41.942;24.220;2022-12-07T06:06:45;127.35;;;76.47;;
22648;SDS011;11491;41.942;24.220;2022-12-07T06:09:12;123.03;;;71.10;;
22648;SDS011;11491;41.942;24.220;2022-12-07T06:11:41;121.00;;;68.85;;
22648;SDS011;11491;41.942;24.220;2022-12-07T06:14:26;103.57;;;60.50;;
22648;SDS011;11491;41.942;24.220;2022-12-07T06:16:53;98.85;;;56.45;;
22648;SDS011;11491;41.942;24.220;2022-12-07T06:19:20;106.13;;;58.15;;
22648;SDS011;11491;41.942;24.220;2022-12-07T06:21:47;118.65;;;72.05;;
22648;SDS011;11491;41.942;24.220;2022-12-07T06:24:14;126.38;;;78.70;;
22648;SDS011;11491;41.942;24.220;2022-12-07T06:26:42;125.50;;;76.82;;
22648;SDS011;11491;41.942;24.220;2022-12-07T06:29:09;102.97;;;61.67;;
22648;SDS011;11491;41.942;24.220;2022-12-07T06:31:38;112.63;;;71.43;;
22648;SDS011;11491;41.942;24.220;2022-12-07T06:34:05;156.02;;;97.43;;
22648;SDS011;11491;41.942;24.220;2022-12-07T06:36:33;154.18;;;96.28;;
22648;SDS011;11491;41.942;24.220;2022-12-07T06:39:00;167.63;;;101.57;;
22648;SDS011;11491;41.942;24.220;2022-12-07T06:41:27;195.40;;;119.72;;
22648;SDS011;11491;41.942;24.220;2022-12-07T06:43:54;214.98;;;131.73;;
22648;SDS011;11491;41.942;24.220;2022-12-07T06:46:21;227.18;;;137.13;;
22648;SDS011;11491;41.942;24.220;2022-12-07T06:48:49;217.18;;;135.90;;
22648;SDS011;11491;41.942;24.220;2022-12-07T06:51:16;206.68;;;119.53;;
22648;SDS011;11491;41.942;24.220;2022-12-07T06:53:43;170.30;;;94.68;;
22648;SDS011;11491;41.942;24.220;2022-12-07T06:56:09;111.43;;;62.50;;
22648;SDS011;11491;41.942;24.220;2022-12-07T06:58:36;113.97;;;60.65;;
22648;SDS011;11491;41.942;24.220;2022-12-07T07:01:07;171.15;;;104.28;;
22648;SDS011;11491;41.942;24.220;2022-12-07T07:03:35;151.98;;;89.88;;
22648;SDS011;11491;41.942;24.220;2022-12-07T07:06:07;148.18;;;85.40;;
22648;SDS011;11491;41.942;24.220;2022-12-07T07:08:34;162.50;;;97.03;;
22648;SDS011;11491;41.942;24.220;2022-12-07T07:11:01;148.63;;;85.57;;
22648;SDS011;11491;41.942;24.220;2022-12-07T07:13:28;160.95;;;93.53;;
22648;SDS011;11491;41.942;24.220;2022-12-07T07:15:55;116.78;;;69.00;;
22648;SDS011;11491;41.942;24.220;2022-12-07T07:18:22;135.05;;;82.78;;
22648;SDS011;11491;41.942;24.220;2022-12-07T07:20:49;139.60;;;88.72;;
22648;SDS011;11491;41.942;24.220;2022-12-07T07:23:18;145.93;;;92.97;;
22648;SDS011;11491;41.942;24.220;2022-12-07T07:25:45;141.80;;;91.15;;
22648;SDS011;11491;41.942;24.220;2022-12-07T07:28:12;159.30;;;104.72;;
22648;SDS011;11491;41.942;24.220;2022-12-07T07:30:39;147.27;;;94.60;;
22648;SDS011;11491;41.942;24.220;2022-12-07T07:33:06;95.93;;;64.00;;
22648;SDS011;11491;41.942;24.220;2022-12-07T07:35:33;74.85;;;50.30;;
22648;SDS011;11491;41.942;24.220;2022-12-07T07:38:00;71.05;;;47.58;;
22648;SDS011;11491;41.942;24.220;2022-12-07T07:40:29;76.65;;;47.75;;
22648;SDS011;11491;41.942;24.220;2022-12-07T07:42:56;43.25;;;30.58;;
22648;SDS011;11491;41.942;24.220;2022-12-07T07:45:24;42.38;;;28.85;;
22648;SDS011;11491;41.942;24.220;2022-12-07T07:47:52;38.92;;;22.20;;
22648;SDS011;11491;41.942;24.220;2022-12-07T07:50:19;31.77;;;20.65;;
22648;SDS011;11491;41.942;24.220;2022-12-07T07:52:46;22.73;;;15.18;;
22648;SDS011;11491;41.942;24.220;2022-12-07T07:55:12;32.95;;;24.00;;
22648;SDS011;11491;41.942;24.220;2022-12-07T07:57:41;61.65;;;43.83;;
22648;SDS011;11491;41.942;24.220;2022-12-07T08:00:08;45.85;;;32.53;;
22648;SDS011;11491;41.942;24.220;2022-12-07T08:02:37;60.22;;;42.17;;
22648;SDS011;11491;41.942;24.220;2022-12-07T08:05:04;56.88;;;41.63;;
22648;SDS011;11491;41.942;24.220;2022-12-07T08:07:31;47.63;;;37.60;;
22648;SDS011;11491;41.942;24.220;2022-12-07T08:09:58;47.85;;;32.75;;
22648;SDS011;11491;41.942;24.220;2022-12-07T08:12:24;41.35;;;27.98;;
22648;SDS011;11491;41.942;24.220;2022-12-07T08:14:53;44.38;;;28.80;;
22648;SDS011;11491;41.942;24.220;2022-12-07T08:17:19;69.13;;;39.13;;
22648;SDS011;11491;41.942;24.220;2022-12-07T08:19:46;53.90;;;35.20;;
22648;SDS011;11491;41.942;24.220;2022-12-07T08:22:13;48.63;;;36.17;;
22648;SDS011;11491;41.942;24.220;2022-12-07T08:24:39;65.93;;;41.83;;
22648;SDS011;11491;41.942;24.220;2022-12-07T08:27:06;72.90;;;45.50;;
22648;SDS011;11491;41.942;24.220;2022-12-07T08:29:33;78.65;;;48.17;;
22648;SDS011;11491;41.942;24.220;2022-12-07T08:32:01;72.15;;;46.60;;
22648;SDS011;11491;41.942;24.220;2022-12-07T08:34:28;67.40;;;50.33;;
22648;SDS011;11491;41.942;24.220;2022-12-07T08:36:55;74.75;;;53.92;;
22648;SDS011;11491;41.942;24.220;2022-12-07T08:39:21;72.88;;;55.15;;
22648;SDS011;11491;41.942;24.220;2022-12-07T08:41:48;80.63;;;57.72;;
22648;SDS011;11491;41.942;24.220;2022-12-07T08:44:15;92.07;;;64.85;;
22648;SDS011;11491;41.942;24.220;2022-12-07T08:46:42;90.05;;;64.32;;
22648;SDS011;11491;41.942;24.220;2022-12-07T08:49:15;57.53;;;43.28;;
22648;SDS011;11491;41.942;24.220;2022-12-07T08:51:44;55.28;;;40.83;;
22648;SDS011;11491;41.942;24.220;2022-12-07T08:54:12;41.20;;;31.63;;
22648;SDS011;11491;41.942;24.220;2022-12-07T08:56:41;66.93;;;40.80;;
22648;SDS011;11491;41.942;24.220;2022-12-07T08:59:08;34.50;;;21.20;;
22648;SDS011;11491;41.942;24.220;2022-12-07T09:01:35;22.88;;;15.80;;
22648;SDS011;11491;41.942;24.220;2022-12-07T09:04:05;25.02;;;18.63;;
22648;SDS011;11491;41.942;24.220;2022-12-07T09:06:33;9.85;;;5.57;;
22648;SDS011;11491;41.942;24.220;2022-12-07T09:09:00;13.00;;;8.20;;
22648;SDS011;11491;41.942;24.220;2022-12-07T09:11:29;15.98;;;9.88;;
22648;SDS011;11491;41.942;24.220;2022-12-07T09:13:56;20.92;;;9.23;;
22648;SDS011;11491;41.942;24.220;2022-12-07T09:16:22;10.07;;;6.82;;
22648;SDS011;11491;41.942;24.220;2022-12-07T09:18:49;11.95;;;7.85;;
22648;SDS011;11491;41.942;24.220;2022-12-07T09:21:16;8.90;;;5.65;;
22648;SDS011;11491;41.942;24.220;2022-12-07T09:23:44;9.60;;;4.75;;
22648;SDS011;11491;41.942;24.220;2022-12-07T09:26:11;10.55;;;6.30;;
22648;SDS011;11491;41.942;24.220;2022-12-07T09:28:38;18.85;;;10.82;;
22648;SDS011;11491;41.942;24.220;2022-12-07T09:31:05;17.58;;;12.02;;
22648;SDS011;11491;41.942;24.220;2022-12-07T09:33:32;19.38;;;11.27;;
22648;SDS011;11491;41.942;24.220;2022-12-07T09:35:59;9.73;;;5.68;;
22648;SDS011;11491;41.942;24.220;2022-12-07T09:38:25;15.63;;;8.05;;
22648;SDS011;11491;41.942;24.220;2022-12-07T09:40:55;30.33;;;13.13;;
22648;SDS011;11491;41.942;24.220;2022-12-07T09:43:22;9.40;;;4.95;;
22648;SDS011;11491;41.942;24.220;2022-12-07T09:45:51;18.15;;;7.00;;
22648;SDS011;11491;41.942;24.220;2022-12-07T09:48:20;20.60;;;12.50;;
22648;SDS011;11491;41.942;24.220;2022-12-07T09:50:50;18.70;;;9.90;;
22648;SDS011;11491;41.942;24.220;2022-12-07T09:53:20;21.17;;;14.10;;
22648;SDS011;11491;41.942;24.220;2022-12-07T09:55:51;31.77;;;16.17;;
22648;SDS011;11491;41.942;24.220;2022-12-07T09:58:21;31.83;;;13.70;;
22648;SDS011;11491;41.942;24.220;2022-12-07T10:00:50;18.70;;;9.25;;
22648;SDS011;11491;41.942;24.220;2022-12-07T10:03:19;20.05;;;8.93;;
22648;SDS011;11491;41.942;24.220;2022-12-07T10:05:47;19.83;;;9.60;;
22648;SDS011;11491;41.942;24.220;2022-12-07T10:08:16;18.33;;;9.05;;
22648;SDS011;11491;41.942;24.220;2022-12-07T10:10:43;18.10;;;8.43;;
22648;SDS011;11491;41.942;24.220;2022-12-07T10:13:11;31.95;;;13.27;;
22648;SDS011;11491;41.942;24.220;2022-12-07T10:15:51;19.67;;;8.65;;
22648;SDS011;11491;41.942;24.220;2022-12-07T10:18:20;20.15;;;10.57;;
22648;SDS011;11491;41.942;24.220;2022-12-07T10:20:59;14.13;;;7.00;;
22648;SDS011;11491;41.942;24.220;2022-12-07T10:23:28;30.05;;;13.23;;
22648;SDS011;11491;41.942;24.220;2022-12-07T10:25:56;23.98;;;10.60;;
22648;SDS011;11491;41.942;24.220;2022-12-07T10:28:23;9.52;;;6.25;;
22648;SDS011;11491;41.942;24.220;2022-12-07T10:30:55;22.70;;;11.13;;
22648;SDS011;11491;41.942;24.220;2022-12-07T10:33:27;17.48;;;7.63;;
22648;SDS011;11491;41.942;24.220;2022-12-07T10:35:56;19.35;;;8.93;;
22648;SDS011;11491;41.942;24.220;2022-12-07T10:38:24;10.57;;;5.90;;
22648;SDS011;11491;41.942;24.220;2022-12-07T10:41:02;14.05;;;8.93;;
22648;SDS011;11491;41.942;24.220;2022-12-07T10:43:30;26.98;;;13.98;;
22648;SDS011;11491;41.942;24.220;2022-12-07T10:49:00;8.85;;;6.05;;
22648;SDS011;11491;41.942;24.220;2022-12-07T10:51:35;13.02;;;8.60;;
22648;SDS011;11491;41.942;24.220;2022-12-07T10:54:10;7.93;;;5.53;;
22648;SDS011;11491;41.942;24.220;2022-12-07T10:56:46;5.88;;;2.60;;
22648;SDS011;11491;41.942;24.220;2022-12-07T10:59:40;14.85;;;9.88;;
22648;SDS011;11491;41.942;24.220;2022-12-07T11:02:23;16.85;;;9.10;;
22648;SDS011;11491;41.942;24.220;2022-12-07T11:05:02;17.40;;;11.15;;
22648;SDS011;11491;41.942;24.220;2022-12-07T11:07:43;15.80;;;7.28;;
22648;SDS011;11491;41.942;24.220;2022-12-07T11:10:18;10.00;;;5.97;;
22648;SDS011;11491;41.942;24.220;2022-12-07T11:12:59;31.02;;;13.27;;
22648;SDS011;11491;41.942;24.220;2022-12-07T11:15:43;17.23;;;7.18;;
22648;SDS011;11491;41.942;24.220;2022-12-07T11:18:26;13.57;;;5.77;;
22648;SDS011;11491;41.942;24.220;2022-12-07T11:20:58;5.85;;;3.55;;
22648;SDS011;11491;41.942;24.220;2022-12-07T11:23:38;4.68;;;3.63;;
22648;SDS011;11491;41.942;24.220;2022-12-07T11:26:14;5.90;;;3.53;;
22648;SDS011;11491;41.942;24.220;2022-12-07T11:28:53;6.80;;;3.10;;
22648;SDS011;11491;41.942;24.220;2022-12-07T11:34:06;9.30;;;6.07;;
22648;SDS011;11491;41.942;24.220;2022-12-07T11:36:42;6.95;;;3.03;;
22648;SDS011;11491;41.942;24.220;2022-12-07T11:39:12;8.30;;;3.78;;
22648;SDS011;11491;41.942;24.220;2022-12-07T11:41:49;5.38;;;3.70;;
22648;SDS011;11491;41.942;24.220;2022-12-07T11:44:24;6.60;;;2.88;;
22648;SDS011;11491;41.942;24.220;2022-12-07T11:46:56;6.13;;;3.30;;
22648;SDS011;11491;41.942;24.220;2022-12-07T11:49:33;7.22;;;3.70;;
22648;SDS011;11491;41.942;24.220;2022-12-07T11:52:11;7.63;;;5.80;;
22648;SDS011;11491;41.942;24.220;2022-12-07T11:54:47;18.80;;;7.65;;
22648;SDS011;11491;41.942;24.220;2022-12-07T11:57:19;14.07;;;6.47;;
22648;SDS011;11491;41.942;24.220;2022-12-07T12:02:20;5.03;;;3.33;;
22648;SDS011;11491;41.942;24.220;2022-12-07T12:04:54;22.27;;;7.82;;
22648;SDS011;11491;41.942;24.220;2022-12-07T12:07:25;23.10;;;8.35;;
22648;SDS011;11491;41.942;24.220;2022-12-07T12:09:54;6.30;;;2.83;;
22648;SDS011;11491;41.942;24.220;2022-12-07T12:12:35;4.35;;;2.63;;
22648;SDS011;11491;41.942;24.220;2022-12-07T12:15:20;5.72;;;3.40;;
22648;SDS011;11491;41.942;24.220;2022-12-07T12:18:02;59.70;;;27.98;;
22648;SDS011;11491;41.942;24.220;2022-12-07T12:20:45;9.65;;;5.38;;
22648;SDS011;11491;41.942;24.220;2022-12-07T12:23:16;6.20;;;3.47;;
22648;SDS011;11491;41.942;24.220;2022-12-07T12:25:47;35.38;;;17.67;;
22648;SDS011;11491;41.942;24.220;2022-12-07T12:28:18;9.38;;;7.07;;
22648;SDS011;11491;41.942;24.220;2022-12-07T12:31:07;6.22;;;3.28;;
22648;SDS011;11491;41.942;24.220;2022-12-07T12:33:36;5.32;;;3.58;;
22648;SDS011;11491;41.942;24.220;2022-12-07T12:36:19;12.65;;;8.25;;
22648;SDS011;11491;41.942;24.220;2022-12-07T12:38:49;14.18;;;6.95;;
22648;SDS011;11491;41.942;24.220;2022-12-07T12:44:38;67.40;;;43.15;;
22648;SDS011;11491;41.942;24.220;2022-12-07T12:47:37;295.73;;;150.20;;
22648;SDS011;11491;41.942;24.220;2022-12-07T12:50:20;101.78;;;53.33;;
22648;SDS011;11491;41.942;24.220;2022-12-07T12:52:58;14.32;;;7.85;;
22648;SDS011;11491;41.942;24.220;2022-12-07T12:56:02;66.78;;;38.88;;
22648;SDS011;11491;41.942;24.220;2022-12-07T13:01:51;44.42;;;29.63;;
22648;SDS011;11491;41.942;24.220;2022-12-07T13:10:22;10.13;;;5.32;;
22648;SDS011;11491;41.942;24.220;2022-12-07T13:12:59;38.13;;;23.80;;
22648;SDS011;11491;41.942;24.220;2022-12-07T13:15:32;17.40;;;12.52;;
22648;SDS011;11491;41.942;24.220;2022-12-07T13:18:01;19.95;;;14.85;;
22648;SDS011;11491;41.942;24.220;2022-12-07T13:20:45;10.35;;;7.75;;
22648;SDS011;11491;41.942;24.220;2022-12-07T13:23:20;20.13;;;12.55;;
22648;SDS011;11491;41.942;24.220;2022-12-07T13:26:08;29.20;;;18.52;;
22648;SDS011;11491;41.942;24.220;2022-12-07T13:28:41;11.77;;;6.93;;
22648;SDS011;11491;41.942;24.220;2022-12-07T13:31:11;10.75;;;6.78;;
22648;SDS011;11491;41.942;24.220;2022-12-07T13:33:43;15.70;;;11.55;;
22648;SDS011;11491;41.942;24.220;2022-12-07T13:36:14;11.13;;;6.85;;
22648;SDS011;11491;41.942;24.220;2022-12-07T13:38:48;11.60;;;7.35;;
22648;SDS011;11491;41.942;24.220;2022-12-07T13:41:18;18.15;;;11.55;;
22648;SDS011;11491;41.942;24.220;2022-12-07T13:43:48;10.57;;;8.45;;
22648;SDS011;11491;41.942;24.220;2022-12-07T13:46:19;52.75;;;24.45;;
22648;SDS011;11491;41.942;24.220;2022-12-07T13:48:50;14.35;;;8.90;;
22648;SDS011;11491;41.942;24.220;2022-12-07T13:51:20;18.35;;;11.60;;
22648;SDS011;11491;41.942;24.220;2022-12-07T13:53:49;29.88;;;15.55;;
22648;SDS011;11491;41.942;24.220;2022-12-07T13:56:20;30.33;;;14.40;;
22648;SDS011;11491;41.942;24.220;2022-12-07T13:58:48;25.00;;;14.15;;
22648;SDS011;11491;41.942;24.220;2022-12-07T14:01:14;58.35;;;29.98;;
22648;SDS011;11491;41.942;24.220;2022-12-07T14:03:41;8.05;;;5.00;;
22648;SDS011;11491;41.942;24.220;2022-12-07T14:06:19;27.90;;;13.32;;
22648;SDS011;11491;41.942;24.220;2022-12-07T14:09:06;57.65;;;29.42;;
22648;SDS011;11491;41.942;24.220;2022-12-07T14:11:35;23.17;;;16.00;;
22648;SDS011;11491;41.942;24.220;2022-12-07T14:14:04;21.30;;;14.55;;
22648;SDS011;11491;41.942;24.220;2022-12-07T14:16:32;25.08;;;19.83;;
22648;SDS011;11491;41.942;24.220;2022-12-07T14:19:02;10.65;;;5.65;;
22648;SDS011;11491;41.942;24.220;2022-12-07T14:21:32;22.83;;;16.13;;
22648;SDS011;11491;41.942;24.220;2022-12-07T14:24:08;63.85;;;32.28;;
22648;SDS011;11491;41.942;24.220;2022-12-07T14:26:39;68.97;;;36.20;;
22648;SDS011;11491;41.942;24.220;2022-12-07T14:29:19;58.35;;;35.72;;
22648;SDS011;11491;41.942;24.220;2022-12-07T14:31:56;50.83;;;42.17;;
22648;SDS011;11491;41.942;24.220;2022-12-07T14:34:24;29.55;;;21.02;;
22648;SDS011;11491;41.942;24.220;2022-12-07T14:36:52;34.50;;;21.70;;
22648;SDS011;11491;41.942;24.220;2022-12-07T14:39:19;27.08;;;16.58;;
22648;SDS011;11491;41.942;24.220;2022-12-07T14:41:47;39.17;;;23.90;;
22648;SDS011;11491;41.942;24.220;2022-12-07T14:44:18;16.83;;;10.65;;
22648;SDS011;11491;41.942;24.220;2022-12-07T14:46:45;18.13;;;11.60;;
22648;SDS011;11491;41.942;24.220;2022-12-07T14:49:12;20.58;;;13.88;;
22648;SDS011;11491;41.942;24.220;2022-12-07T14:51:40;35.25;;;19.67;;
22648;SDS011;11491;41.942;24.220;2022-12-07T14:54:11;42.42;;;25.85;;
22648;SDS011;11491;41.942;24.220;2022-12-07T14:56:42;57.17;;;35.20;;